マニラ/ニノイ・アキノ の空港の天気 - METARとTAF

ニノイ・アキノ国際空港 ( RPLL / MNL ) - フィリピン マニラ
飛行場実況気象(Metar)
観測時間03/29 05:00 +08 (03/28 21:00 UTC)
風向・風速東南東 3m/s
視程10km以上
天気現象
全天の4割程度の雲 雲底高度 700m
全天の8割程度の雲 雲底高度 2740m
気温26℃
湿度74%
気圧1015hPa
METARRPLL 282100Z 12005KT 080V140 9999 SCT023 BKN090 26/21 Q1015 NOSIG RMK A2997
過去の天気等 Google飛行場航空写真 Wunderground天気予報

過去48時間のMETAR

飛行場予報(TAF)
発表時間: 3/29 01:00 +08 (3/28 17:00 UTC)
予報対象時間: 29日2時 +08 ~ 30日8時 +08
風向・風速東南東 4m/s
視程10km以上
少しの雲 雲底高度 760m
全天の4割程度の雲 雲底高度 3,050m
29日2時 +08 ~ 29日8時 +08 に一時的に
風向・風速不定 1m/s
少しの雲 雲底高度 760m
全天の8割程度の雲 雲底高度 3,050m
29日14時 +08 ~ 29日20時 +08 に一時的に
風向・風速東 6m/s
少しの雲 雲底高度 760m
全天の8割程度の雲 雲底高度 3,050m
TAF RPLL 281700Z 2818/2924 11008KT 9999 FEW025 SCT100 TX32/2906Z TN25/2821Z
TEMPO 2818/2824 VRB02KT FEW025 BKN100
TEMPO 2906/2912 10012KT FEW025 BKN100